Time;durP1;ratioP1;P1;durP2;ratioP2;P2;SDS_P1;SDS_P2;PMS_P1;PMS_P2;Temp;Humidity;BMP_temperature;BMP_pressure;BME280_temperature;BME280_humidity;BME280_pressure;Samples;Min_cycle;Max_cycle;Signal;HPM_P1;HPM_P2
2023/12/27 00:00:35;;;;;;;;;;;2.60;99.90;;;;;;5090303;28;19941;-34
2023/12/27 00:03:02;;;;;;;;;;;2.60;99.90;;;;;;5091996;28;19959;-34
2023/12/27 00:05:28;;;;;;;;;;;2.60;99.90;;;;;;5091208;28;19946;-35
2023/12/27 00:07:55;;;;;;;;;;;2.60;99.90;;;;;;5092177;28;20351;-35
2023/12/27 00:10:23;;;;;;;;;;;2.60;99.90;;;;;;5109608;28;19942;-34
2023/12/27 00:12:50;;;;;;;;;;;2.50;99.90;;;;;;5091329;28;19994;-33
2023/12/27 00:15:16;;;;;;;;;;;2.50;99.90;;;;;;5108361;28;19988;-33
2023/12/27 00:17:43;;;;;;;;;;;2.60;99.90;;;;;;5072801;28;19946;-35
2023/12/27 00:20:10;;;;;;;;;;;2.50;99.90;;;;;;5091434;28;19941;-33
2023/12/27 00:22:37;;;;;;;;;;;2.50;99.90;;;;;;5092969;28;19951;-34
2023/12/27 00:25:04;;;;;;;;;;;2.50;99.90;;;;;;5090633;28;19944;-35
2023/12/27 00:27:32;;;;;;;;;;;2.40;99.90;;;;;;5088102;28;19961;-35
2023/12/27 00:29:58;;;;;;;;;;;2.40;99.90;;;;;;5090164;28;20387;-35
2023/12/27 00:32:25;;;;;;;;;;;2.40;99.90;;;;;;5102147;28;20012;-33
2023/12/27 00:34:51;;;;;;;;;;;2.40;99.90;;;;;;5090958;28;19987;-37
2023/12/27 00:37:18;;;;;;;;;;;2.40;99.90;;;;;;5108517;28;19942;-33
2023/12/27 00:39:46;;;;;;;;;;;2.40;99.90;;;;;;5091496;28;19948;-37
2023/12/27 00:42:13;;;;;;;;;;;2.40;99.90;;;;;;5091737;28;19965;-35
2023/12/27 00:44:41;;;;;;;;;;;2.40;99.90;;;;;;5093171;28;19975;-33
2023/12/27 00:47:07;;;;;;;;;;;2.40;99.90;;;;;;5090913;28;19924;-34
2023/12/27 00:49:34;;;;;;;;;;;2.40;99.90;;;;;;5093130;28;19939;-34
2023/12/27 00:52:01;;;;;;;;;;;2.40;99.90;;;;;;5091622;28;19997;-36
2023/12/27 00:54:27;;;;;;;;;;;2.40;99.90;;;;;;5091671;28;20443;-34
2023/12/27 00:56:54;;;;;;;;;;;2.40;99.90;;;;;;5090458;28;19928;-34
2023/12/27 00:59:20;;;;;;;;;;;2.30;99.90;;;;;;5091074;28;19999;-34
2023/12/27 01:01:48;;;;;;;;;;;2.30;99.90;;;;;;5089515;28;20033;-34
2023/12/27 01:04:15;;;;;;;;;;;2.30;99.90;;;;;;5091540;28;19944;-34
2023/12/27 01:06:42;;;;;;;;;;;2.30;99.90;;;;;;5093817;28;19970;-34
2023/12/27 01:09:08;;;;;;;;;;;2.30;99.90;;;;;;5108057;28;20456;-35
2023/12/27 01:11:35;;;;;;;;;;;2.20;99.90;;;;;;5113524;28;19984;-35
2023/12/27 01:14:02;;;;;;;;;;;2.30;99.90;;;;;;5114991;28;19996;-34
2023/12/27 01:16:29;;;;;;;;;;;2.20;99.90;;;;;;5089963;28;20368;-33
2023/12/27 01:18:57;;;;;;;;;;;2.20;99.90;;;;;;5095444;28;20395;-34
2023/12/27 01:21:23;;;;;;;;;;;2.20;99.90;;;;;;5095069;28;19967;-33
2023/12/27 01:23:50;;;;;;;;;;;2.20;99.90;;;;;;5093791;28;20054;-36
2023/12/27 01:26:17;;;;;;;;;;;2.20;99.90;;;;;;5112128;28;20049;-35
2023/12/27 01:28:43;;;;;;;;;;;2.20;99.90;;;;;;5094615;28;19939;-35
2023/12/27 01:31:10;;;;;;;;;;;2.20;99.90;;;;;;5110925;28;19940;-34
2023/12/27 01:33:36;;;;;;;;;;;2.10;99.90;;;;;;5116345;28;20003;-34
2023/12/27 01:36:07;;;;;;;;;;;2.10;99.90;;;;;;5094034;28;19985;-34
2023/12/27 01:38:34;;;;;;;;;;;2.10;99.90;;;;;;5114149;28;19946;-33
2023/12/27 01:41:00;;;;;;;;;;;2.10;99.90;;;;;;5094391;28;19985;-36
2023/12/27 01:43:27;;;;;;;;;;;2.10;99.90;;;;;;5095200;28;20016;-35
2023/12/27 01:45:54;;;;;;;;;;;2.10;99.90;;;;;;5116359;28;19924;-34
2023/12/27 01:48:20;;;;;;;;;;;2.00;99.90;;;;;;5081733;28;19941;-35
2023/12/27 01:50:47;;;;;;;;;;;2.10;99.90;;;;;;5109157;28;20051;-35
2023/12/27 01:53:15;;;;;;;;;;;2.10;99.90;;;;;;5093682;28;19977;-34
2023/12/27 01:55:42;;;;;;;;;;;2.10;99.90;;;;;;5093585;28;20023;-32
2023/12/27 01:58:10;;;;;;;;;;;2.00;99.90;;;;;;5094774;28;20351;-33
2023/12/27 02:00:37;;;;;;;;;;;2.00;99.90;;;;;;5095624;28;20025;-34
2023/12/27 02:03:04;;;;;;;;;;;2.10;99.90;;;;;;5093541;28;19954;-34
2023/12/27 02:05:31;;;;;;;;;;;2.00;99.90;;;;;;5095554;28;19947;-33
2023/12/27 02:07:58;;;;;;;;;;;2.00;99.90;;;;;;5094296;28;20033;-34
2023/12/27 02:10:26;;;;;;;;;;;1.90;99.90;;;;;;5112711;28;20373;-35
2023/12/27 02:12:53;;;;;;;;;;;1.90;99.90;;;;;;5093642;28;19955;-34
2023/12/27 02:15:20;;;;;;;;;;;1.90;99.90;;;;;;5094574;28;19944;-34
2023/12/27 02:17:47;;;;;;;;;;;1.90;99.90;;;;;;5092579;28;19986;-34
2023/12/27 02:20:13;;;;;;;;;;;1.90;99.90;;;;;;5093372;28;20364;-34
2023/12/27 02:22:40;;;;;;;;;;;1.90;99.90;;;;;;5113579;28;20015;-34
2023/12/27 02:25:08;;;;;;;;;;;1.80;99.90;;;;;;5094343;28;19925;-34
2023/12/27 02:27:35;;;;;;;;;;;1.80;99.90;;;;;;5094663;28;19957;-35
2023/12/27 02:30:01;;;;;;;;;;;1.80;99.90;;;;;;5114785;28;19938;-34
2023/12/27 02:32:28;;;;;;;;;;;1.80;99.90;;;;;;5114750;28;20026;-34
2023/12/27 02:34:55;;;;;;;;;;;1.80;99.90;;;;;;5094002;28;19963;-36
2023/12/27 02:37:21;;;;;;;;;;;1.80;99.90;;;;;;5091898;28;19938;-33
2023/12/27 02:39:48;;;;;;;;;;;1.70;99.90;;;;;;5114641;28;20017;-34
2023/12/27 02:42:16;;;;;;;;;;;1.80;99.90;;;;;;5093960;28;20473;-35
2023/12/27 02:44:43;;;;;;;;;;;1.80;99.90;;;;;;5114528;28;20013;-35
2023/12/27 02:47:09;;;;;;;;;;;1.80;99.90;;;;;;5113189;28;19997;-34
2023/12/27 02:49:36;;;;;;;;;;;1.70;99.90;;;;;;5092136;28;19932;-34
2023/12/27 02:52:03;;;;;;;;;;;1.80;99.90;;;;;;5092675;28;19944;-35
2023/12/27 02:54:29;;;;;;;;;;;1.70;99.90;;;;;;5078091;27;19993;-34
2023/12/27 02:56:56;;;;;;;;;;;1.80;99.90;;;;;;5114646;28;19938;-33
2023/12/27 02:59:24;;;;;;;;;;;1.80;99.90;;;;;;5093405;28;19944;-35
2023/12/27 03:01:51;;;;;;;;;;;1.80;99.90;;;;;;5092520;28;19941;-34
2023/12/27 03:04:18;;;;;;;;;;;1.80;99.90;;;;;;5110463;28;20378;-34
2023/12/27 03:06:44;;;;;;;;;;;1.80;99.90;;;;;;5092402;28;19946;-35
2023/12/27 03:09:11;;;;;;;;;;;1.80;99.90;;;;;;5093601;28;19924;-34
2023/12/27 03:11:38;;;;;;;;;;;1.80;99.90;;;;;;5094733;28;19988;-34
2023/12/27 03:14:05;;;;;;;;;;;1.80;99.90;;;;;;5092727;28;20080;-34
2023/12/27 03:16:33;;;;;;;;;;;1.90;99.90;;;;;;5094380;28;19986;-35
2023/12/27 03:19:00;;;;;;;;;;;1.90;99.90;;;;;;5090598;28;19957;-34
2023/12/27 03:21:26;;;;;;;;;;;1.90;99.90;;;;;;5112189;28;19957;-37
2023/12/27 03:23:53;;;;;;;;;;;1.90;99.90;;;;;;5080537;28;20045;-35
2023/12/27 03:26:20;;;;;;;;;;;1.90;99.90;;;;;;5085660;28;20002;-34
2023/12/27 03:28:47;;;;;;;;;;;1.80;99.90;;;;;;5095693;28;19945;-36
2023/12/27 03:31:14;;;;;;;;;;;1.90;99.90;;;;;;5095349;28;19943;-34
2023/12/27 03:33:42;;;;;;;;;;;1.90;99.90;;;;;;5095089;28;19980;-34
2023/12/27 03:36:09;;;;;;;;;;;1.90;99.90;;;;;;5095294;28;20018;-35
2023/12/27 03:38:35;;;;;;;;;;;1.90;99.90;;;;;;5095453;28;19969;-35
2023/12/27 03:41:02;;;;;;;;;;;1.80;99.90;;;;;;5094465;28;20002;-36
2023/12/27 03:43:29;;;;;;;;;;;1.90;99.90;;;;;;5094818;28;20417;-34
2023/12/27 03:45:55;;;;;;;;;;;1.90;99.90;;;;;;5113113;28;19928;-34
2023/12/27 03:48:22;;;;;;;;;;;1.80;99.90;;;;;;5095209;28;19982;-34
2023/12/27 03:50:50;;;;;;;;;;;1.80;99.90;;;;;;5094696;28;19983;-36
2023/12/27 03:53:16;;;;;;;;;;;1.80;99.90;;;;;;5095290;28;19924;-34
2023/12/27 03:55:43;;;;;;;;;;;1.80;99.90;;;;;;5113878;28;19997;-34
2023/12/27 03:58:10;;;;;;;;;;;1.80;99.90;;;;;;5113006;28;20359;-35
2023/12/27 04:00:36;;;;;;;;;;;1.80;99.90;;;;;;5094802;28;19966;-34
2023/12/27 04:03:03;;;;;;;;;;;1.80;99.90;;;;;;5112604;28;19928;-35
2023/12/27 04:05:30;;;;;;;;;;;1.80;99.90;;;;;;5094808;28;19941;-35
2023/12/27 04:07:58;;;;;;;;;;;1.80;99.90;;;;;;5095599;28;19958;-36
2023/12/27 04:10:25;;;;;;;;;;;1.80;99.90;;;;;;5112701;28;19924;-34
2023/12/27 04:12:52;;;;;;;;;;;1.80;99.90;;;;;;5093786;28;19989;-34
2023/12/27 04:15:19;;;;;;;;;;;1.80;99.90;;;;;;5094253;28;20477;-34
2023/12/27 04:17:45;;;;;;;;;;;1.80;99.90;;;;;;5094574;28;19941;-34
2023/12/27 04:20:12;;;;;;;;;;;1.80;99.90;;;;;;5094499;28;19996;-33
2023/12/27 04:22:39;;;;;;;;;;;1.80;99.90;;;;;;5093919;28;19932;-35
2023/12/27 04:25:08;;;;;;;;;;;1.80;99.90;;;;;;5113327;28;20329;-34
2023/12/27 04:27:35;;;;;;;;;;;1.80;99.90;;;;;;5090248;28;20006;-35
2023/12/27 04:30:01;;;;;;;;;;;1.90;99.90;;;;;;5091893;28;19999;-34
2023/12/27 04:32:28;;;;;;;;;;;1.80;99.90;;;;;;5088961;28;20009;-35
2023/12/27 04:34:54;;;;;;;;;;;1.80;99.90;;;;;;5083917;28;20449;-34
2023/12/27 04:37:21;;;;;;;;;;;1.80;99.90;;;;;;5091844;28;19944;-34
2023/12/27 04:39:48;;;;;;;;;;;1.80;99.90;;;;;;5082865;28;19938;-35
2023/12/27 04:42:16;;;;;;;;;;;1.80;99.90;;;;;;5091927;28;19999;-36
2023/12/27 04:44:43;;;;;;;;;;;1.80;99.90;;;;;;5091388;28;19967;-35
2023/12/27 04:47:10;;;;;;;;;;;1.80;99.90;;;;;;5086244;28;20313;-35
2023/12/27 04:49:36;;;;;;;;;;;1.80;99.90;;;;;;5091930;28;19961;-36
2023/12/27 04:52:03;;;;;;;;;;;1.80;99.90;;;;;;5092092;28;20361;-34
2023/12/27 04:54:30;;;;;;;;;;;1.80;99.90;;;;;;5092561;28;19944;-34
2023/12/27 04:56:56;;;;;;;;;;;1.90;99.90;;;;;;5084996;28;19940;-34
2023/12/27 04:59:24;;;;;;;;;;;1.80;99.90;;;;;;5090774;28;19994;-34
2023/12/27 05:01:51;;;;;;;;;;;1.80;99.90;;;;;;5083582;28;19940;-35
2023/12/27 05:04:18;;;;;;;;;;;1.90;99.90;;;;;;5090519;28;19955;-34
2023/12/27 05:06:44;;;;;;;;;;;1.80;99.90;;;;;;5082502;28;19945;-36
2023/12/27 05:09:12;;;;;;;;;;;1.90;99.90;;;;;;5090864;28;20384;-36
2023/12/27 05:11:39;;;;;;;;;;;1.90;99.90;;;;;;5091344;28;20314;-34
2023/12/27 05:14:06;;;;;;;;;;;1.90;99.90;;;;;;5091458;28;20305;-34
2023/12/27 05:16:34;;;;;;;;;;;1.90;99.90;;;;;;5088899;28;19928;-35
2023/12/27 05:19:00;;;;;;;;;;;1.90;99.90;;;;;;5081623;28;20295;-34
2023/12/27 05:21:27;;;;;;;;;;;1.90;99.90;;;;;;5091237;28;19942;-35
2023/12/27 05:23:53;;;;;;;;;;;1.90;99.90;;;;;;5079564;28;20071;-35
2023/12/27 05:26:20;;;;;;;;;;;2.00;99.90;;;;;;5082198;28;20012;-34
2023/12/27 05:28:47;;;;;;;;;;;2.00;99.90;;;;;;5090105;28;20344;-36
2023/12/27 05:31:13;;;;;;;;;;;1.90;99.90;;;;;;5090287;28;19942;-36
2023/12/27 05:33:41;;;;;;;;;;;1.90;99.90;;;;;;5093584;28;19993;-35
2023/12/27 05:36:08;;;;;;;;;;;2.00;99.90;;;;;;5090361;28;19941;-35
2023/12/27 05:38:34;;;;;;;;;;;2.00;99.90;;;;;;5080791;28;19999;-36
2023/12/27 05:41:01;;;;;;;;;;;2.00;99.90;;;;;;5076730;28;19940;-34
2023/12/27 05:43:28;;;;;;;;;;;2.00;99.90;;;;;;5091169;28;19994;-34
2023/12/27 05:45:54;;;;;;;;;;;2.00;99.90;;;;;;5090167;28;20013;-34
2023/12/27 05:48:21;;;;;;;;;;;2.00;99.90;;;;;;5088348;28;20587;-34
2023/12/27 05:50:49;;;;;;;;;;;2.00;99.90;;;;;;5089997;28;19939;-33
2023/12/27 05:53:16;;;;;;;;;;;2.00;99.90;;;;;;5089393;28;19938;-34
2023/12/27 05:55:42;;;;;;;;;;;2.10;99.90;;;;;;5090075;28;20037;-33
2023/12/27 05:58:09;;;;;;;;;;;2.10;99.90;;;;;;5110067;28;20297;-35
2023/12/27 06:00:35;;;;;;;;;;;2.10;99.90;;;;;;5096267;28;20044;-35
2023/12/27 06:03:02;;;;;;;;;;;2.10;99.90;;;;;;5111237;28;19976;-34
2023/12/27 06:05:29;;;;;;;;;;;2.10;99.90;;;;;;5095322;28;19960;-34
2023/12/27 06:07:57;;;;;;;;;;;2.20;99.90;;;;;;5094016;28;20035;-34
2023/12/27 06:10:26;;;;;;;;;;;2.20;99.90;;;;;;5109151;28;19937;-34
2023/12/27 06:12:53;;;;;;;;;;;2.20;99.90;;;;;;5083306;28;19949;-35
2023/12/27 06:15:19;;;;;;;;;;;2.20;99.90;;;;;;5092930;28;19942;-35
2023/12/27 06:17:46;;;;;;;;;;;2.30;99.90;;;;;;5091561;28;19992;-35
2023/12/27 06:20:12;;;;;;;;;;;2.30;99.90;;;;;;5093869;28;20441;-34
2023/12/27 06:22:39;;;;;;;;;;;2.30;99.90;;;;;;5096840;28;19993;-33
2023/12/27 06:25:08;;;;;;;;;;;2.30;99.90;;;;;;5092589;28;19954;-34
2023/12/27 06:27:35;;;;;;;;;;;2.30;99.90;;;;;;5093784;28;19964;-35
2023/12/27 06:30:02;;;;;;;;;;;2.30;99.90;;;;;;5093119;28;19944;-34
2023/12/27 06:32:29;;;;;;;;;;;2.30;99.90;;;;;;5113437;28;19951;-36
2023/12/27 06:34:56;;;;;;;;;;;2.30;99.90;;;;;;5092622;28;20012;-34
2023/12/27 06:37:23;;;;;;;;;;;2.40;99.90;;;;;;5112021;28;19948;-35
2023/12/27 06:39:50;;;;;;;;;;;2.40;99.90;;;;;;5091385;28;19924;-36
2023/12/27 06:42:18;;;;;;;;;;;2.40;99.90;;;;;;5096511;28;19946;-35
2023/12/27 06:44:44;;;;;;;;;;;2.40;99.90;;;;;;5114268;28;19956;-35
2023/12/27 06:47:11;;;;;;;;;;;2.40;99.90;;;;;;5092970;28;19982;-34
2023/12/27 06:49:38;;;;;;;;;;;2.40;99.90;;;;;;5096127;28;20023;-34
2023/12/27 06:52:05;;;;;;;;;;;2.50;99.90;;;;;;5113078;28;19940;-35
2023/12/27 06:54:31;;;;;;;;;;;2.50;99.90;;;;;;5095005;28;19944;-34
2023/12/27 06:56:59;;;;;;;;;;;2.50;99.90;;;;;;5114183;28;20295;-35
2023/12/27 06:59:27;;;;;;;;;;;2.50;99.90;;;;;;5093021;28;20027;-36
2023/12/27 07:01:54;;;;;;;;;;;2.50;99.90;;;;;;5113767;28;20311;-38
2023/12/27 07:04:20;;;;;;;;;;;2.50;99.90;;;;;;5092827;28;20011;-36
2023/12/27 07:06:47;;;;;;;;;;;2.60;99.90;;;;;;5114216;28;19984;-38
2023/12/27 07:09:14;;;;;;;;;;;2.60;99.90;;;;;;5092435;28;19942;-37
2023/12/27 07:11:41;;;;;;;;;;;2.70;99.90;;;;;;5094546;28;20392;-35
2023/12/27 07:14:08;;;;;;;;;;;2.70;99.90;;;;;;5111787;28;19947;-36
2023/12/27 07:16:36;;;;;;;;;;;2.70;99.90;;;;;;5079430;28;19950;-38
2023/12/27 07:19:03;;;;;;;;;;;2.70;99.90;;;;;;5103637;28;19946;-36
2023/12/27 07:21:30;;;;;;;;;;;2.80;99.90;;;;;;5092289;28;19928;-39
2023/12/27 07:23:56;;;;;;;;;;;2.80;99.90;;;;;;5091785;28;19949;-35
2023/12/27 07:26:23;;;;;;;;;;;2.90;99.90;;;;;;5092218;28;20362;-38
2023/12/27 07:28:50;;;;;;;;;;;2.90;99.90;;;;;;5093721;28;19934;-38
2023/12/27 07:31:16;;;;;;;;;;;2.90;99.90;;;;;;5095091;28;20451;-39
2023/12/27 07:33:44;;;;;;;;;;;3.00;99.90;;;;;;5095697;28;19991;-37
2023/12/27 07:36:11;;;;;;;;;;;3.00;99.90;;;;;;5095638;28;19940;-37
2023/12/27 07:38:38;;;;;;;;;;;3.10;99.90;;;;;;5114429;28;20313;-39
2023/12/27 07:41:05;;;;;;;;;;;3.10;99.90;;;;;;5095167;28;20417;-34
2023/12/27 07:43:31;;;;;;;;;;;3.10;99.90;;;;;;5113221;28;20054;-35
2023/12/27 07:45:58;;;;;;;;;;;3.20;99.90;;;;;;5095430;28;19940;-35
2023/12/27 07:48:25;;;;;;;;;;;3.20;99.90;;;;;;5078090;28;19949;-35
2023/12/27 07:50:53;;;;;;;;;;;3.20;99.90;;;;;;5075734;28;20006;-34
2023/12/27 07:53:19;;;;;;;;;;;3.30;99.90;;;;;;5109667;28;19932;-34
2023/12/27 07:55:46;;;;;;;;;;;3.40;99.90;;;;;;5095117;28;19991;-35
2023/12/27 07:58:12;;;;;;;;;;;3.40;99.90;;;;;;5092928;28;19940;-34
2023/12/27 08:00:40;;;;;;;;;;;3.40;99.90;;;;;;5092186;28;20043;-33
2023/12/27 08:03:08;;;;;;;;;;;3.50;99.90;;;;;;5112656;28;19936;-33
2023/12/27 08:05:35;;;;;;;;;;;3.50;99.90;;;;;;5092885;28;19990;-35
2023/12/27 08:08:03;;;;;;;;;;;3.50;99.90;;;;;;5092944;28;20401;-35
2023/12/27 08:10:30;;;;;;;;;;;3.60;99.90;;;;;;5106611;28;19943;-34
2023/12/27 08:12:57;;;;;;;;;;;3.70;99.90;;;;;;5093413;28;19936;-36
2023/12/27 08:15:24;;;;;;;;;;;3.70;99.90;;;;;;5093392;28;20321;-34
2023/12/27 08:17:50;;;;;;;;;;;3.60;99.90;;;;;;5112658;28;20363;-34
2023/12/27 08:20:17;;;;;;;;;;;3.60;99.90;;;;;;5094646;28;19940;-33
2023/12/27 08:22:44;;;;;;;;;;;3.70;99.90;;;;;;5112675;28;19989;-33
2023/12/27 08:25:13;;;;;;;;;;;3.70;99.90;;;;;;5100562;28;20380;-33
2023/12/27 08:27:39;;;;;;;;;;;3.70;99.90;;;;;;5090419;28;19978;-34
2023/12/27 08:30:06;;;;;;;;;;;3.80;99.90;;;;;;5085987;28;19944;-34
2023/12/27 08:32:33;;;;;;;;;;;3.80;99.90;;;;;;5089210;28;19946;-36
2023/12/27 08:35:00;;;;;;;;;;;3.80;99.90;;;;;;5084868;28;19936;-35
2023/12/27 08:37:27;;;;;;;;;;;3.90;99.90;;;;;;5090591;28;19935;-36
2023/12/27 08:39:53;;;;;;;;;;;3.90;99.90;;;;;;5083965;28;19944;-36
2023/12/27 08:42:22;;;;;;;;;;;3.90;99.90;;;;;;5091565;28;20010;-34
2023/12/27 08:44:48;;;;;;;;;;;3.90;99.90;;;;;;5083501;28;20019;-34
2023/12/27 08:47:15;;;;;;;;;;;4.00;99.90;;;;;;5088023;28;19954;-35
2023/12/27 08:49:41;;;;;;;;;;;4.10;99.90;;;;;;5090220;28;20005;-36
2023/12/27 08:52:08;;;;;;;;;;;4.00;99.90;;;;;;5085762;28;20343;-34
2023/12/27 08:54:35;;;;;;;;;;;4.00;99.90;;;;;;5090580;28;19966;-34
2023/12/27 08:57:01;;;;;;;;;;;4.10;99.90;;;;;;5083269;28;19945;-34
2023/12/27 08:59:29;;;;;;;;;;;4.10;99.90;;;;;;5091302;28;19943;-34
2023/12/27 09:01:56;;;;;;;;;;;4.10;99.90;;;;;;5083575;28;19954;-35
2023/12/27 09:04:23;;;;;;;;;;;4.10;99.90;;;;;;5083318;28;20157;-34
2023/12/27 09:06:49;;;;;;;;;;;4.10;99.90;;;;;;5081495;28;20418;-34
2023/12/27 09:09:17;;;;;;;;;;;4.10;99.90;;;;;;5091250;28;19988;-35
2023/12/27 09:11:43;;;;;;;;;;;4.20;99.90;;;;;;5090452;28;19927;-35
2023/12/27 09:14:10;;;;;;;;;;;4.20;99.90;;;;;;5085125;28;20449;-34
2023/12/27 09:16:38;;;;;;;;;;;4.20;99.90;;;;;;5090253;28;19938;-34
2023/12/27 09:19:05;;;;;;;;;;;4.20;99.90;;;;;;5084425;28;19938;-34
2023/12/27 09:21:32;;;;;;;;;;;4.20;99.90;;;;;;5091450;28;19983;-34
2023/12/27 09:23:58;;;;;;;;;;;4.30;99.90;;;;;;5071851;28;19988;-34
2023/12/27 09:26:25;;;;;;;;;;;4.30;99.90;;;;;;5091987;28;20053;-34
2023/12/27 09:28:51;;;;;;;;;;;4.40;99.90;;;;;;5090009;28;19941;-35
2023/12/27 09:31:18;;;;;;;;;;;4.30;99.90;;;;;;5105051;28;20357;-35
2023/12/27 09:33:46;;;;;;;;;;;4.40;99.90;;;;;;5113774;28;19943;-34
2023/12/27 09:36:13;;;;;;;;;;;4.40;99.90;;;;;;5093631;28;19946;-34
2023/12/27 09:38:40;;;;;;;;;;;4.50;99.90;;;;;;5091202;28;19945;-35
2023/12/27 09:41:07;;;;;;;;;;;4.50;99.90;;;;;;5082779;28;19936;-34
2023/12/27 09:43:34;;;;;;;;;;;4.50;99.90;;;;;;5091582;28;20311;-36
2023/12/27 09:46:00;;;;;;;;;;;4.60;99.90;;;;;;5113516;28;19952;-35
2023/12/27 09:48:27;;;;;;;;;;;4.50;99.90;;;;;;5095394;28;20341;-36
2023/12/27 09:50:55;;;;;;;;;;;4.60;99.90;;;;;;5113528;28;20307;-34
2023/12/27 09:53:22;;;;;;;;;;;4.70;99.90;;;;;;5112201;28;20346;-36
2023/12/27 09:55:49;;;;;;;;;;;4.70;99.90;;;;;;5092718;28;19949;-36
2023/12/27 09:58:15;;;;;;;;;;;4.70;99.90;;;;;;5108379;28;20063;-35
2023/12/27 10:00:43;;;;;;;;;;;4.70;99.90;;;;;;5090895;28;20349;-35
2023/12/27 10:03:10;;;;;;;;;;;4.80;99.90;;;;;;5109725;28;19940;-34
2023/12/27 10:05:39;;;;;;;;;;;4.70;99.90;;;;;;5093312;28;19949;-35
2023/12/27 10:08:07;;;;;;;;;;;4.80;99.90;;;;;;5112259;28;19945;-35
2023/12/27 10:10:35;;;;;;;;;;;4.80;99.90;;;;;;5114194;28;19990;-35
2023/12/27 10:13:02;;;;;;;;;;;4.80;99.90;;;;;;5114138;28;19940;-35
2023/12/27 10:15:29;;;;;;;;;;;4.80;99.90;;;;;;5113899;28;19946;-33
2023/12/27 10:17:56;;;;;;;;;;;4.90;99.90;;;;;;5093733;28;19989;-34
2023/12/27 10:20:32;;;;;;;;;;;4.90;99.90;;;;;;5093345;28;20374;-34
2023/12/27 10:22:59;;;;;;;;;;;4.90;99.90;;;;;;5092279;28;20432;-35
2023/12/27 10:25:28;;;;;;;;;;;5.00;99.90;;;;;;5111643;28;19951;-34
2023/12/27 10:27:55;;;;;;;;;;;5.00;99.90;;;;;;5092924;28;19965;-34
2023/12/27 10:30:22;;;;;;;;;;;5.00;99.90;;;;;;5092848;28;19942;-33
2023/12/27 10:32:56;;;;;;;;;;;5.00;99.90;;;;;;5093825;28;19939;-34
2023/12/27 10:35:23;;;;;;;;;;;5.00;99.90;;;;;;5091875;28;19961;-36
2023/12/27 10:37:58;;;;;;;;;;;5.00;99.90;;;;;;5092665;28;19946;-34
2023/12/27 10:40:24;;;;;;;;;;;5.00;99.90;;;;;;5094292;28;20235;-34
2023/12/27 10:42:53;;;;;;;;;;;5.00;99.90;;;;;;5092351;28;19944;-34
2023/12/27 10:45:20;;;;;;;;;;;5.00;99.90;;;;;;5094359;28;19954;-35
2023/12/27 10:47:47;;;;;;;;;;;5.00;99.90;;;;;;5113659;28;20508;-34
2023/12/27 10:50:14;;;;;;;;;;;5.00;99.90;;;;;;5112558;28;20451;-35
2023/12/27 10:52:41;;;;;;;;;;;5.10;99.90;;;;;;5094683;28;19940;-33
2023/12/27 10:55:09;;;;;;;;;;;5.00;99.90;;;;;;5091187;28;20011;-34
2023/12/27 10:57:35;;;;;;;;;;;5.10;99.90;;;;;;5093753;28;19944;-34
2023/12/27 11:00:08;;;;;;;;;;;5.10;99.90;;;;;;5103795;28;19943;-33
2023/12/27 11:02:36;;;;;;;;;;;5.20;99.90;;;;;;5092058;28;19944;-33
2023/12/27 11:05:03;;;;;;;;;;;5.10;99.90;;;;;;5082665;28;20007;-35
2023/12/27 11:07:32;;;;;;;;;;;5.10;99.90;;;;;;5091291;28;19941;-34
2023/12/27 11:09:58;;;;;;;;;;;5.20;99.90;;;;;;5092759;28;19938;-34
2023/12/27 11:12:25;;;;;;;;;;;5.10;99.90;;;;;;5093303;28;19956;-35
2023/12/27 11:14:51;;;;;;;;;;;5.20;99.90;;;;;;5091006;28;19939;-33
2023/12/27 11:17:20;;;;;;;;;;;5.20;99.90;;;;;;5109123;28;19936;-35
2023/12/27 11:19:50;;;;;;;;;;;5.20;99.90;;;;;;5088635;28;20388;-35
2023/12/27 11:22:16;;;;;;;;;;;5.20;99.90;;;;;;5090516;28;19937;-35
2023/12/27 11:24:43;;;;;;;;;;;5.20;99.90;;;;;;5087501;28;19986;-35
2023/12/27 11:27:10;;;;;;;;;;;5.20;99.90;;;;;;5084560;28;20092;-34
2023/12/27 11:29:37;;;;;;;;;;;5.20;99.90;;;;;;5081160;28;19943;-35
2023/12/27 11:32:04;;;;;;;;;;;5.20;99.90;;;;;;5090864;28;19940;-35
2023/12/27 11:34:32;;;;;;;;;;;5.20;99.90;;;;;;5087833;28;19934;-36
2023/12/27 11:36:59;;;;;;;;;;;5.20;99.90;;;;;;5088851;28;19989;-34
2023/12/27 11:39:26;;;;;;;;;;;5.20;99.90;;;;;;5093241;28;20013;-34
2023/12/27 11:41:53;;;;;;;;;;;5.20;99.90;;;;;;5090955;28;19947;-34
2023/12/27 11:44:20;;;;;;;;;;;5.20;99.90;;;;;;5088748;28;19991;-35
2023/12/27 11:46:47;;;;;;;;;;;5.30;99.90;;;;;;5080560;28;19952;-33
2023/12/27 11:49:18;;;;;;;;;;;5.30;99.90;;;;;;5075808;28;19943;-33
2023/12/27 11:51:46;;;;;;;;;;;5.30;99.90;;;;;;5080726;28;19937;-34
2023/12/27 11:54:20;;;;;;;;;;;5.30;99.90;;;;;;5082956;28;20319;-34
2023/12/27 11:56:47;;;;;;;;;;;5.30;99.90;;;;;;5103889;28;19983;-35
2023/12/27 11:59:14;;;;;;;;;;;5.30;99.90;;;;;;5087912;28;20360;-35
2023/12/27 12:01:40;;;;;;;;;;;5.30;99.90;;;;;;5104997;28;19934;-34
2023/12/27 12:04:26;;;;;;;;;;;5.30;99.90;;;;;;5110187;28;19927;-35
2023/12/27 12:07:13;;;;;;;;;;;5.40;99.90;;;;;;5087127;28;19959;-35
2023/12/27 12:09:42;;;;;;;;;;;5.40;99.90;;;;;;5085641;28;19965;-35
2023/12/27 12:12:10;;;;;;;;;;;5.40;99.90;;;;;;5088747;28;19936;-36
2023/12/27 12:14:37;;;;;;;;;;;5.40;99.90;;;;;;5093107;28;19934;-33
2023/12/27 12:17:04;;;;;;;;;;;5.40;99.90;;;;;;5089758;28;19941;-36
2023/12/27 12:19:31;;;;;;;;;;;5.40;99.90;;;;;;5076300;28;19945;-36
2023/12/27 12:21:58;;;;;;;;;;;5.40;99.90;;;;;;5109722;28;19932;-35
2023/12/27 12:24:24;;;;;;;;;;;5.50;99.90;;;;;;5088139;28;19995;-34
2023/12/27 12:26:54;;;;;;;;;;;5.50;99.90;;;;;;5088076;28;20030;-33
2023/12/27 12:29:21;;;;;;;;;;;5.50;99.90;;;;;;5104252;28;19934;-34
2023/12/27 12:31:49;;;;;;;;;;;5.60;99.90;;;;;;5086622;28;19938;-35
2023/12/27 12:34:15;;;;;;;;;;;5.60;99.90;;;;;;5107867;28;20306;-37
2023/12/27 12:36:42;;;;;;;;;;;5.70;99.90;;;;;;5090871;28;20371;-34
2023/12/27 12:39:08;;;;;;;;;;;5.70;99.90;;;;;;5107809;28;19980;-35
2023/12/27 12:41:35;;;;;;;;;;;5.80;99.90;;;;;;5088791;28;19981;-35
2023/12/27 12:44:03;;;;;;;;;;;5.80;99.90;;;;;;5110585;28;20031;-34
2023/12/27 12:46:30;;;;;;;;;;;5.90;99.90;;;;;;5090393;28;19950;-35
2023/12/27 12:48:56;;;;;;;;;;;5.90;99.90;;;;;;5089094;28;19943;-33
2023/12/27 12:51:25;;;;;;;;;;;5.90;99.90;;;;;;5091217;28;19962;-35
2023/12/27 12:53:52;;;;;;;;;;;5.90;99.90;;;;;;5089947;28;19968;-35
2023/12/27 12:56:19;;;;;;;;;;;6.00;99.90;;;;;;5108097;28;19934;-35
2023/12/27 12:58:45;;;;;;;;;;;6.00;99.90;;;;;;5091044;28;20224;-36
2023/12/27 13:01:14;;;;;;;;;;;6.00;99.90;;;;;;5089596;28;19961;-34
2023/12/27 13:03:43;;;;;;;;;;;6.10;99.90;;;;;;5112163;28;20007;-33
2023/12/27 13:06:11;;;;;;;;;;;6.00;99.90;;;;;;5113713;28;19951;-34
2023/12/27 13:08:38;;;;;;;;;;;6.10;99.90;;;;;;5098052;28;19989;-35
2023/12/27 13:11:04;;;;;;;;;;;6.10;99.90;;;;;;5094419;28;20019;-35
2023/12/27 13:13:31;;;;;;;;;;;6.20;99.90;;;;;;5115116;28;20360;-36
2023/12/27 13:15:58;;;;;;;;;;;6.20;99.90;;;;;;5086707;28;20372;-34
2023/12/27 13:18:26;;;;;;;;;;;6.20;99.90;;;;;;5076200;28;19944;-34
2023/12/27 13:20:53;;;;;;;;;;;6.30;99.90;;;;;;5091271;28;20312;-34
2023/12/27 13:23:20;;;;;;;;;;;6.40;99.90;;;;;;5095645;28;19939;-35
2023/12/27 13:25:46;;;;;;;;;;;6.40;99.90;;;;;;5094359;28;20305;-36
2023/12/27 13:28:13;;;;;;;;;;;6.40;99.90;;;;;;5092579;28;19956;-35
2023/12/27 13:30:40;;;;;;;;;;;6.50;99.90;;;;;;5095047;28;19952;-35
2023/12/27 13:33:07;;;;;;;;;;;6.50;99.90;;;;;;5095068;28;19974;-34
2023/12/27 13:35:35;;;;;;;;;;;6.60;99.90;;;;;;5112978;27;19937;-35
2023/12/27 13:38:02;;;;;;;;;;;6.60;99.90;;;;;;5093454;28;20017;-34
2023/12/27 13:40:31;;;;;;;;;;;6.60;99.90;;;;;;5095948;28;19940;-34
2023/12/27 13:42:57;;;;;;;;;;;6.70;99.90;;;;;;5090538;28;19946;-36
2023/12/27 13:45:24;;;;;;;;;;;6.70;99.90;;;;;;5091590;28;19940;-35
2023/12/27 13:47:51;;;;;;;;;;;6.70;99.90;;;;;;5092106;28;19925;-36
2023/12/27 13:50:17;;;;;;;;;;;6.80;99.90;;;;;;5092768;28;19973;-34
2023/12/27 13:52:45;;;;;;;;;;;6.80;99.90;;;;;;5092981;28;20388;-35
2023/12/27 13:55:15;;;;;;;;;;;6.80;99.90;;;;;;5111448;28;19944;-36
2023/12/27 13:57:41;;;;;;;;;;;6.90;99.90;;;;;;5092807;28;20036;-35
2023/12/27 14:00:10;;;;;;;;;;;6.90;99.90;;;;;;5093271;28;20406;-36
2023/12/27 14:02:36;;;;;;;;;;;6.90;99.90;;;;;;5113736;28;20399;-34
2023/12/27 14:05:03;;;;;;;;;;;6.90;99.90;;;;;;5093368;28;20462;-34
2023/12/27 14:07:30;;;;;;;;;;;6.90;99.90;;;;;;5095287;28;19982;-35
2023/12/27 14:09:58;;;;;;;;;;;7.00;99.90;;;;;;5092424;28;20004;-36
2023/12/27 14:12:28;;;;;;;;;;;7.00;99.90;;;;;;5110892;28;20236;-35
2023/12/27 14:14:56;;;;;;;;;;;7.10;99.90;;;;;;5093566;28;19940;-36
2023/12/27 14:17:23;;;;;;;;;;;7.10;99.90;;;;;;5091925;28;19952;-36
2023/12/27 14:19:50;;;;;;;;;;;7.10;99.90;;;;;;5114924;28;19941;-35
2023/12/27 14:22:17;;;;;;;;;;;7.20;99.90;;;;;;5092072;28;19948;-35
2023/12/27 14:24:43;;;;;;;;;;;7.20;99.90;;;;;;5069333;28;19924;-36
2023/12/27 14:27:11;;;;;;;;;;;7.30;99.90;;;;;;5110592;28;20019;-35
2023/12/27 14:29:38;;;;;;;;;;;7.30;99.90;;;;;;5093783;28;20000;-36